createdAt,value
2022-09-05T00:02:04.929Z,99.90
2022-09-05T00:04:40.606Z,98.80
2022-09-05T00:07:59.702Z,99.90
2022-09-05T00:11:41.254Z,99.90
2022-09-05T00:14:00.792Z,99.90
2022-09-05T00:17:12.694Z,99.90
2022-09-05T00:24:26.945Z,99.90
2022-09-05T00:24:29.812Z,98.80
2022-09-05T00:26:49.936Z,99.90
2022-09-05T00:31:50.833Z,99.90
2022-09-05T00:33:28.656Z,99.90
2022-09-05T00:36:17.283Z,99.00
2022-09-05T00:38:57.734Z,98.90
2022-09-05T00:41:25.930Z,99.40
2022-09-05T00:43:57.279Z,99.90
2022-09-05T00:46:33.676Z,99.30
2022-09-05T00:49:53.654Z,99.40
2022-09-05T00:52:35.728Z,99.90
2022-09-05T00:55:39.110Z,99.20
2022-09-05T00:58:37.409Z,99.50
2022-09-05T01:01:26.561Z,99.40
2022-09-05T01:04:45.836Z,99.90
2022-09-05T01:07:27.498Z,99.90
2022-09-05T01:10:38.754Z,99.90
2022-09-05T01:13:33.032Z,99.90
2022-09-05T01:16:23.578Z,99.90
2022-09-05T01:19:29.792Z,99.90
2022-09-05T01:22:34.310Z,99.90
2022-09-05T01:25:27.348Z,99.90
2022-09-05T01:29:14.072Z,99.90
2022-09-05T01:31:52.415Z,99.90
2022-09-05T01:34:31.838Z,99.90
2022-09-05T01:37:46.306Z,99.90
2022-09-05T01:40:29.658Z,99.90
2022-09-05T01:44:19.697Z,99.90
2022-09-05T01:47:29.470Z,99.90
2022-09-05T01:50:28.253Z,99.90
2022-09-05T01:53:45.920Z,99.90
2022-09-05T01:56:41.416Z,99.90
2022-09-05T01:59:37.499Z,99.90
2022-09-05T02:02:32.598Z,99.90
2022-09-05T02:06:02.071Z,99.90
2022-09-05T02:09:01.011Z,99.90
2022-09-05T02:11:48.508Z,99.90
2022-09-05T02:14:57.490Z,99.90
2022-09-05T02:17:55.135Z,99.90
2022-09-05T02:20:35.947Z,99.90
2022-09-05T02:23:24.762Z,99.90
2022-09-05T02:26:26.870Z,99.90
2022-09-05T02:29:05.604Z,99.90
2022-09-05T02:31:44.296Z,99.90
2022-09-05T02:34:26.141Z,99.90
2022-09-05T02:38:33.082Z,99.90
2022-09-05T02:45:05.938Z,99.90
2022-09-05T02:45:19.503Z,99.90
2022-09-05T02:46:36.720Z,99.90
2022-09-05T02:52:21.204Z,99.90
2022-09-05T02:57:25.031Z,99.90
2022-09-05T02:57:35.236Z,99.90
2022-09-05T02:59:09.163Z,99.90
2022-09-05T03:02:25.947Z,99.90
2022-09-05T03:05:25.772Z,99.90
2022-09-05T03:08:22.633Z,99.90
2022-09-05T03:11:02.150Z,99.90
2022-09-05T03:14:46.905Z,99.90
2022-09-05T03:17:38.624Z,99.90
2022-09-05T03:20:42.444Z,99.90
2022-09-05T03:23:56.048Z,99.90
2022-09-05T03:27:07.580Z,99.90
2022-09-05T03:30:02.135Z,99.90
2022-09-05T03:32:49.581Z,99.90
2022-09-05T03:35:49.886Z,99.90
2022-09-05T03:39:12.782Z,99.90
2022-09-05T03:42:15.205Z,99.90
2022-09-05T03:44:48.632Z,99.90
2022-09-05T03:47:48.872Z,99.90
2022-09-05T03:56:58.261Z,99.90
2022-09-05T03:57:20.406Z,99.90
2022-09-05T03:58:16.692Z,99.90
2022-09-05T04:01:11.038Z,99.90
2022-09-05T04:08:19.248Z,99.90
2022-09-05T04:08:26.185Z,99.90
2022-09-05T04:09:59.285Z,99.90
2022-09-05T04:13:03.869Z,99.90
2022-09-05T04:15:42.101Z,99.90
2022-09-05T04:18:32.924Z,99.90
2022-09-05T04:21:20.365Z,99.90
2022-09-05T04:24:29.227Z,99.90
2022-09-05T04:27:27.792Z,99.90
2022-09-05T04:30:31.210Z,99.90
2022-09-05T04:33:11.483Z,99.90
2022-09-05T04:36:17.788Z,99.90
2022-09-05T04:38:46.738Z,99.90
2022-09-05T04:41:16.582Z,99.90
2022-09-05T04:43:49.615Z,99.90
2022-09-05T04:46:25.220Z,99.90
2022-09-05T04:49:07.091Z,99.90
2022-09-05T04:52:26.880Z,99.90
2022-09-05T04:55:20.162Z,99.90
2022-09-05T04:58:55.557Z,99.90
2022-09-05T05:06:08.228Z,99.90
2022-09-05T05:06:14.276Z,99.90
2022-09-05T05:07:23.858Z,99.90
2022-09-05T05:10:37.596Z,99.90
2022-09-05T05:17:54.384Z,99.90
2022-09-05T05:18:12.955Z,99.90
2022-09-05T05:19:18.610Z,99.90
2022-09-05T05:22:03.762Z,99.90
2022-09-05T05:24:36.517Z,99.90
2022-09-05T05:27:21.440Z,99.90
2022-09-05T05:30:04.690Z,99.90
2022-09-05T05:32:46.040Z,99.90
2022-09-05T05:35:19.200Z,99.90
2022-09-05T05:38:13.279Z,99.90
2022-09-05T05:41:05.634Z,99.90
2022-09-05T05:43:45.524Z,99.90
2022-09-05T05:46:29.282Z,99.90
2022-09-05T05:49:28.711Z,99.90
2022-09-05T05:52:30.880Z,99.90
2022-09-05T05:55:14.055Z,99.90
2022-09-05T05:58:22.040Z,99.90
2022-09-05T06:00:55.023Z,99.90
2022-09-05T06:04:24.391Z,99.90
2022-09-05T06:07:14.939Z,99.90
2022-09-05T06:14:52.811Z,99.90
2022-09-05T06:15:00.801Z,99.90
2022-09-05T06:16:45.774Z,99.90
2022-09-05T06:19:53.187Z,99.90
2022-09-05T06:22:49.492Z,99.90
2022-09-05T06:25:37.867Z,99.90
2022-09-05T06:28:35.654Z,99.90
2022-09-05T06:31:34.780Z,99.90
2022-09-05T06:35:00.095Z,99.90
2022-09-05T06:37:56.337Z,99.90
2022-09-05T06:40:42.224Z,99.90
2022-09-05T06:44:15.290Z,99.90
2022-09-05T06:47:05.793Z,99.90
2022-09-05T06:50:26.910Z,99.90
2022-09-05T06:53:39.214Z,99.90
2022-09-05T06:56:26.617Z,99.90
2022-09-05T06:59:38.103Z,99.90
2022-09-05T07:02:27.288Z,99.90
2022-09-05T07:05:38.948Z,99.90
2022-09-05T07:08:34.144Z,99.90
2022-09-05T07:11:15.928Z,99.90
2022-09-05T07:14:13.665Z,99.90
2022-09-05T07:17:10.002Z,99.90
2022-09-05T07:19:59.220Z,99.90
2022-09-05T07:23:47.810Z,99.90
2022-09-05T07:25:56.045Z,99.90
2022-09-05T07:28:29.606Z,99.90
2022-09-05T07:31:04.247Z,99.90
2022-09-05T07:33:32.102Z,99.90
2022-09-05T07:36:23.661Z,99.90
2022-09-05T07:39:12.225Z,99.90
2022-09-05T07:41:52.467Z,99.90
2022-09-05T07:44:59.002Z,99.90
2022-09-05T07:47:35.502Z,99.90
2022-09-05T07:53:25.887Z,99.90
2022-09-05T07:57:06.155Z,99.90
2022-09-05T07:57:09.517Z,99.90
2022-09-05T07:58:51.674Z,99.90
2022-09-05T08:01:22.533Z,99.90
2022-09-05T08:03:56.260Z,99.90
2022-09-05T08:07:11.889Z,99.90
2022-09-05T08:10:05.968Z,99.90
2022-09-05T08:12:16.327Z,99.90
2022-09-05T08:15:14.185Z,99.90
2022-09-05T08:17:57.492Z,99.90
2022-09-05T08:20:58.983Z,99.90
2022-09-05T08:23:40.837Z,99.90
2022-09-05T08:26:37.617Z,99.90
2022-09-05T08:29:16.812Z,99.90
2022-09-05T08:32:10.871Z,99.90
2022-09-05T08:34:56.715Z,99.90
2022-09-05T08:37:27.005Z,99.90
2022-09-05T08:40:10.553Z,99.90
2022-09-05T08:46:36.615Z,99.90
2022-09-05T08:46:43.403Z,99.90
2022-09-05T08:49:32.374Z,99.90
2022-09-05T08:52:28.836Z,99.90
2022-09-05T08:55:37.062Z,99.90
2022-09-05T08:58:17.721Z,99.90
2022-09-05T09:01:00.274Z,99.90
2022-09-05T09:04:11.451Z,99.90
2022-09-05T09:07:27.856Z,99.90
2022-09-05T09:10:08.655Z,99.90
2022-09-05T09:12:56.662Z,99.90
2022-09-05T09:16:04.740Z,99.90
2022-09-05T09:19:02.140Z,99.90
2022-09-05T09:21:58.249Z,99.50
2022-09-05T09:24:41.461Z,99.90
2022-09-05T09:28:22.610Z,99.90
2022-09-05T09:30:35.749Z,99.90
2022-09-05T09:33:06.204Z,99.90
2022-09-05T09:35:44.713Z,99.90
2022-09-05T09:38:48.810Z,97.00
2022-09-05T09:41:33.973Z,99.70
2022-09-05T09:44:25.189Z,93.60
2022-09-05T09:46:53.336Z,99.90
2022-09-05T09:50:38.117Z,93.80
2022-09-05T09:53:59.923Z,93.70
2022-09-05T09:57:03.577Z,99.60
2022-09-05T10:00:21.176Z,95.70
2022-09-05T10:04:30.988Z,98.10
2022-09-05T10:10:44.656Z,92.70
2022-09-05T10:10:52.851Z,97.90
2022-09-05T10:13:20.435Z,97.40
2022-09-05T10:16:26.166Z,92.30
2022-09-05T10:22:44.185Z,89.40
2022-09-05T10:25:40.408Z,88.80
2022-09-05T10:28:40.148Z,80.00
2022-09-05T10:31:55.568Z,80.20
2022-09-05T10:35:17.697Z,79.40
2022-09-05T10:37:12.568Z,92.50
2022-09-05T10:39:50.976Z,91.10
2022-09-05T10:42:39.896Z,91.50
2022-09-05T10:45:39.533Z,89.60
2022-09-05T10:48:16.566Z,92.60
2022-09-05T10:51:07.700Z,92.20
2022-09-05T10:53:50.588Z,87.10
2022-09-05T10:56:26.145Z,81.30
2022-09-05T11:02:16.413Z,84.50
2022-09-05T11:02:27.304Z,89.20
2022-09-05T11:05:31.005Z,82.70
2022-09-05T11:08:43.198Z,81.40
2022-09-05T11:11:28.401Z,77.70
2022-09-05T11:14:27.039Z,82.80
2022-09-05T11:17:14.063Z,81.80
2022-09-05T11:20:14.417Z,75.30
2022-09-05T11:22:47.729Z,71.10
2022-09-05T11:25:39.662Z,81.40
2022-09-05T11:28:19.046Z,72.20
2022-09-05T11:30:53.488Z,79.40
2022-09-05T11:39:47.068Z,77.90
2022-09-05T11:40:02.803Z,61.30
2022-09-05T11:41:50.936Z,76.20
2022-09-05T11:44:44.840Z,77.00
2022-09-05T11:47:28.111Z,77.30
2022-09-05T11:51:03.676Z,81.40
2022-09-05T11:54:17.399Z,75.00
2022-09-05T11:57:32.908Z,75.90
2022-09-05T12:00:31.213Z,68.60
2022-09-05T12:03:58.261Z,70.60
2022-09-05T12:06:56.442Z,90.60
2022-09-05T12:10:43.593Z,79.50
2022-09-05T12:13:46.281Z,83.80
2022-09-05T12:16:49.436Z,66.30
2022-09-05T12:19:51.996Z,73.30
2022-09-05T12:22:36.415Z,76.20
2022-09-05T12:27:36.693Z,77.10
2022-09-05T12:29:28.176Z,72.00
2022-09-05T12:32:19.661Z,83.10
2022-09-05T12:36:07.376Z,74.20
2022-09-05T12:40:19.743Z,64.40
2022-09-05T12:41:37.435Z,75.20
2022-09-05T12:44:38.836Z,76.60
2022-09-05T12:46:10.926Z,78.40
2022-09-05T12:49:12.854Z,71.80
2022-09-05T12:52:02.428Z,65.30
2022-09-05T12:54:57.060Z,62.50
2022-09-05T13:00:45.263Z,70.00
2022-09-05T13:03:04.084Z,75.90
2022-09-05T13:03:53.418Z,69.10
2022-09-05T13:06:47.048Z,51.30
2022-09-05T13:09:16.560Z,57.60
2022-09-05T13:14:50.820Z,55.60
2022-09-05T13:15:23.145Z,45.10
2022-09-05T13:18:12.957Z,47.90
2022-09-05T13:20:51.510Z,42.20
2022-09-05T13:24:12.237Z,58.20
2022-09-05T13:26:50.177Z,55.40
2022-09-05T13:29:29.482Z,51.30
2022-09-05T13:36:43.430Z,52.30
2022-09-05T13:38:12.701Z,43.10
2022-09-05T13:38:56.094Z,40.40
2022-09-05T13:41:46.450Z,50.60
2022-09-05T13:44:26.354Z,61.10
2022-09-05T13:47:29.676Z,64.30
2022-09-05T13:50:28.712Z,66.50
2022-09-05T13:53:18.942Z,62.20
2022-09-05T13:55:56.748Z,73.50
2022-09-05T13:58:51.081Z,56.70
2022-09-05T14:02:19.913Z,63.80
2022-09-05T14:05:05.849Z,58.90
2022-09-05T14:08:20.621Z,67.80
2022-09-05T14:11:08.581Z,62.30
2022-09-05T14:14:09.277Z,47.40
2022-09-05T14:16:53.899Z,58.80
2022-09-05T14:19:43.274Z,57.00
2022-09-05T14:22:28.144Z,68.90
2022-09-05T14:24:58.255Z,69.90
2022-09-05T14:27:32.466Z,72.00
2022-09-05T14:30:38.456Z,65.20
2022-09-05T14:37:41.494Z,76.20
2022-09-05T14:37:46.137Z,65.80
2022-09-05T14:39:47.855Z,70.10
2022-09-05T14:42:51.025Z,60.10
2022-09-05T14:45:42.775Z,60.80
2022-09-05T14:48:43.515Z,56.80
2022-09-05T14:51:39.243Z,61.00
2022-09-05T15:02:38.942Z,58.20
2022-09-05T15:02:50.549Z,67.90
2022-09-05T15:03:04.992Z,73.40
2022-09-05T15:05:43.138Z,59.30
2022-09-05T15:09:58.634Z,74.90
2022-09-05T15:12:18.701Z,66.50
2022-09-05T15:14:12.160Z,80.90
2022-09-05T15:16:45.632Z,77.20
2022-09-05T15:20:08.740Z,71.10
2022-09-05T15:22:41.894Z,67.20
2022-09-05T15:25:19.942Z,56.30
2022-09-05T15:27:49.803Z,54.60
2022-09-05T15:30:36.219Z,57.30
2022-09-05T15:33:25.823Z,53.10
2022-09-05T15:35:54.908Z,52.10
2022-09-05T15:38:30.115Z,71.60
2022-09-05T15:41:13.414Z,70.90
2022-09-05T15:43:59.720Z,60.00
2022-09-05T15:46:59.628Z,57.80
2022-09-05T15:49:42.977Z,65.90
2022-09-05T15:52:27.314Z,76.20
2022-09-05T15:54:59.696Z,70.10
2022-09-05T15:57:31.783Z,68.50
2022-09-05T16:00:07.914Z,75.10
2022-09-05T16:02:55.440Z,58.90
2022-09-05T16:10:31.447Z,58.40
2022-09-05T16:10:40.128Z,60.00
2022-09-05T16:12:09.058Z,53.70
2022-09-05T16:14:39.508Z,57.20
2022-09-05T16:23:15.297Z,60.50
2022-09-05T16:23:23.412Z,60.60
2022-09-05T16:24:11.496Z,61.80
2022-09-05T16:26:47.724Z,53.60
2022-09-05T16:29:27.018Z,51.20
2022-09-05T16:32:22.826Z,65.20
2022-09-05T16:35:07.448Z,62.50
2022-09-05T16:37:49.136Z,57.00
2022-09-05T16:40:29.635Z,53.60
2022-09-05T16:43:20.603Z,62.80
2022-09-05T16:46:08.571Z,71.80
2022-09-05T16:49:12.225Z,67.70
2022-09-05T16:51:50.386Z,62.20
2022-09-05T16:54:48.730Z,63.30
2022-09-05T16:57:22.681Z,64.00
2022-09-05T16:59:50.401Z,58.90
2022-09-05T17:02:58.046Z,55.80
2022-09-05T17:05:39.683Z,59.60
2022-09-05T17:08:19.375Z,59.70
2022-09-05T17:11:03.592Z,58.50
2022-09-05T17:13:48.820Z,66.60
2022-09-05T17:16:47.386Z,65.50
2022-09-05T17:19:22.222Z,64.10
2022-09-05T17:24:59.603Z,61.60
2022-09-05T17:29:17.140Z,63.60
2022-09-05T17:29:38.123Z,68.20
2022-09-05T17:33:43.454Z,72.10
2022-09-05T17:36:41.349Z,73.30
2022-09-05T17:39:49.263Z,72.20
2022-09-05T17:42:36.309Z,64.60
2022-09-05T17:45:29.926Z,76.30
2022-09-05T17:47:57.997Z,73.80
2022-09-05T17:50:33.118Z,71.10
2022-09-05T17:55:54.904Z,74.30
2022-09-05T17:58:28.321Z,78.60
2022-09-05T18:01:27.158Z,78.00
2022-09-05T18:04:16.611Z,75.30
2022-09-05T18:06:52.682Z,78.30
2022-09-05T18:09:40.090Z,77.70
2022-09-05T18:13:11.621Z,76.70
2022-09-05T18:15:31.765Z,63.20
2022-09-05T18:18:08.614Z,81.40
2022-09-05T18:24:07.974Z,81.10
2022-09-05T18:26:44.986Z,79.10
2022-09-05T18:32:45.636Z,82.10
2022-09-05T18:35:37.106Z,87.40
2022-09-05T18:38:12.777Z,90.00
2022-09-05T18:41:09.165Z,88.90
2022-09-05T18:44:12.042Z,90.20
2022-09-05T18:46:49.439Z,81.60
2022-09-05T18:50:21.509Z,85.70
2022-09-05T18:52:28.934Z,84.10
2022-09-05T18:56:09.230Z,74.40
2022-09-05T18:58:09.374Z,82.10
2022-09-05T19:00:44.466Z,89.70
2022-09-05T19:03:19.045Z,89.50
2022-09-05T19:06:35.142Z,90.80
2022-09-05T19:08:55.575Z,89.00
2022-09-05T19:11:57.828Z,90.20
2022-09-05T19:14:55.660Z,90.90
2022-09-05T19:17:34.607Z,89.70
2022-09-05T19:20:30.990Z,91.10
2022-09-05T19:23:11.272Z,85.50
2022-09-05T19:25:45.612Z,83.80
2022-09-05T19:36:48.994Z,83.90
2022-09-05T19:36:54.346Z,90.40
2022-09-05T19:37:25.552Z,91.30
2022-09-05T19:37:30.212Z,82.70
2022-09-05T19:47:27.074Z,90.50
2022-09-05T19:47:42.611Z,88.10
2022-09-05T19:47:50.282Z,92.10
2022-09-05T19:48:35.242Z,90.10
2022-09-05T19:51:17.569Z,88.80
2022-09-05T19:54:04.867Z,86.60
2022-09-05T19:56:44.883Z,90.40
2022-09-05T19:59:24.094Z,90.60
2022-09-05T20:01:53.090Z,92.50
2022-09-05T20:04:21.427Z,89.80
2022-09-05T20:06:50.433Z,91.20
2022-09-05T20:09:24.109Z,90.20
2022-09-05T20:11:59.856Z,91.40
2022-09-05T20:14:36.760Z,86.00
2022-09-05T20:17:30.076Z,89.70
2022-09-05T20:20:22.448Z,93.20
2022-09-05T20:22:52.735Z,85.90
2022-09-05T20:25:39.939Z,88.40
2022-09-05T20:28:17.580Z,89.20
2022-09-05T20:30:54.121Z,92.30
2022-09-05T20:33:36.942Z,92.60
2022-09-05T20:43:10.102Z,92.80
2022-09-05T20:43:19.345Z,93.60
2022-09-05T20:43:23.808Z,88.80
2022-09-05T20:44:50.366Z,93.00
2022-09-05T20:54:08.451Z,91.30
2022-09-05T20:54:19.246Z,90.30
2022-09-05T20:54:19.415Z,90.10
2022-09-05T20:56:22.503Z,85.90
2022-09-05T20:58:51.290Z,85.80
2022-09-05T21:01:23.395Z,92.90
2022-09-05T21:04:04.067Z,92.10
2022-09-05T21:06:34.770Z,89.20
2022-09-05T21:09:30.057Z,90.10
2022-09-05T21:11:59.891Z,94.20
2022-09-05T21:14:29.694Z,90.40
2022-09-05T21:17:15.134Z,94.60
2022-09-05T21:19:53.672Z,94.80
2022-09-05T21:22:21.293Z,94.20
2022-09-05T21:25:08.590Z,92.90
2022-09-05T21:30:23.069Z,91.00
2022-09-05T21:33:01.031Z,92.20
2022-09-05T21:35:35.212Z,92.80
2022-09-05T21:38:02.850Z,93.90
2022-09-05T21:40:29.976Z,94.10
2022-09-05T21:47:44.286Z,96.00
2022-09-05T21:47:44.955Z,95.10
2022-09-05T21:48:36.843Z,91.60
2022-09-05T21:51:12.964Z,92.50
2022-09-05T21:59:22.514Z,95.50
2022-09-05T21:59:30.182Z,90.00
2022-09-05T21:59:46.128Z,95.00
2022-09-05T22:02:16.394Z,90.10
2022-09-05T22:04:43.692Z,92.10
2022-09-05T22:07:20.294Z,93.10
2022-09-05T22:09:59.132Z,93.10
2022-09-05T22:12:31.390Z,90.90
2022-09-05T22:15:05.957Z,96.60
2022-09-05T22:17:47.199Z,94.50
2022-09-05T22:20:17.445Z,96.90
2022-09-05T22:22:45.280Z,91.40
2022-09-05T22:25:29.118Z,92.00
2022-09-05T22:28:19.409Z,90.90
2022-09-05T22:30:46.449Z,93.60
2022-09-05T22:33:13.554Z,91.20
2022-09-05T22:35:41.100Z,95.40
2022-09-05T22:38:16.421Z,95.30
2022-09-05T22:40:46.404Z,91.30
2022-09-05T22:43:14.856Z,91.80
2022-09-05T22:45:41.913Z,97.70
2022-09-05T22:48:14.545Z,97.70
2022-09-05T22:50:42.846Z,91.60
2022-09-05T22:53:10.485Z,97.30
2022-09-05T22:55:41.354Z,93.80
2022-09-05T22:58:12.460Z,97.50
2022-09-05T23:00:39.513Z,92.10
2022-09-05T23:03:07.824Z,96.80
2022-09-05T23:05:35.226Z,92.00
2022-09-05T23:08:04.174Z,92.60
2022-09-05T23:10:32.060Z,98.90
2022-09-05T23:12:59.444Z,98.20
2022-09-05T23:15:26.713Z,97.60
2022-09-05T23:17:59.513Z,99.40
2022-09-05T23:20:29.824Z,92.90
2022-09-05T23:22:57.144Z,97.10
2022-09-05T23:25:24.708Z,95.80
2022-09-05T23:27:51.897Z,93.00
2022-09-05T23:30:18.987Z,98.60
2022-09-05T23:32:51.440Z,98.80
2022-09-05T23:35:19.375Z,99.70
2022-09-05T23:37:48.320Z,98.10
2022-09-05T23:40:20.059Z,93.70
2022-09-05T23:42:55.605Z,99.90
2022-09-05T23:45:24.076Z,99.90
2022-09-05T23:47:51.926Z,98.80
2022-09-05T23:50:19.818Z,97.40
2022-09-05T23:52:47.724Z,93.70
2022-09-05T23:55:18.055Z,99.90
2022-09-05T23:57:46.279Z,97.70
